sensor_id;sensor_type;location;lat;lon;timestamp;temperature;humidity
5210;DHT22;2624;48.048;11.706;2023-02-28T00:00:01;-1.80;99.90
5210;DHT22;2624;48.048;11.706;2023-02-28T00:05:12;-1.80;99.90
5210;DHT22;2624;48.048;11.706;2023-02-28T00:10:16;-1.90;99.90
5210;DHT22;2624;48.048;11.706;2023-02-28T00:15:20;-1.90;99.90
5210;DHT22;2624;48.048;11.706;2023-02-28T00:20:24;-1.90;99.90
5210;DHT22;2624;48.048;11.706;2023-02-28T00:25:27;-2.00;99.90
5210;DHT22;2624;48.048;11.706;2023-02-28T00:30:28;-2.00;99.90
5210;DHT22;2624;48.048;11.706;2023-02-28T00:35:31;-2.00;99.90
5210;DHT22;2624;48.048;11.706;2023-02-28T00:40:33;-2.10;99.90
5210;DHT22;2624;48.048;11.706;2023-02-28T00:45:35;-2.10;99.90
5210;DHT22;2624;48.048;11.706;2023-02-28T00:50:38;-2.10;99.90
5210;DHT22;2624;48.048;11.706;2023-02-28T00:55:40;-2.20;99.90
5210;DHT22;2624;48.048;11.706;2023-02-28T01:00:41;-2.10;99.90
5210;DHT22;2624;48.048;11.706;2023-02-28T01:05:46;-2.10;99.90
5210;DHT22;2624;48.048;11.706;2023-02-28T01:10:48;-2.10;99.90
5210;DHT22;2624;48.048;11.706;2023-02-28T01:15:51;-2.10;99.90
5210;DHT22;2624;48.048;11.706;2023-02-28T01:20:55;-2.20;99.90
5210;DHT22;2624;48.048;11.706;2023-02-28T01:25:56;-2.20;99.90
5210;DHT22;2624;48.048;11.706;2023-02-28T01:30:58;-2.30;99.90
5210;DHT22;2624;48.048;11.706;2023-02-28T01:36:03;-2.30;99.90
5210;DHT22;2624;48.048;11.706;2023-02-28T01:41:06;-2.40;99.90
5210;DHT22;2624;48.048;11.706;2023-02-28T01:46:09;-2.30;99.90
5210;DHT22;2624;48.048;11.706;2023-02-28T01:51:15;-2.30;99.90
5210;DHT22;2624;48.048;11.706;2023-02-28T01:56:22;-2.20;99.90
5210;DHT22;2624;48.048;11.706;2023-02-28T02:01:27;-2.20;99.90
5210;DHT22;2624;48.048;11.706;2023-02-28T02:06:35;-2.30;99.90
5210;DHT22;2624;48.048;11.706;2023-02-28T02:11:41;-2.40;99.90
5210;DHT22;2624;48.048;11.706;2023-02-28T02:16:52;-2.40;99.90
5210;DHT22;2624;48.048;11.706;2023-02-28T02:22:11;-2.40;99.90
5210;DHT22;2624;48.048;11.706;2023-02-28T02:27:24;-2.30;99.90
5210;DHT22;2624;48.048;11.706;2023-02-28T02:33:00;-2.30;99.90
5210;DHT22;2624;48.048;11.706;2023-02-28T02:38:08;-2.20;99.90
5210;DHT22;2624;48.048;11.706;2023-02-28T02:43:17;-2.20;99.90
5210;DHT22;2624;48.048;11.706;2023-02-28T02:48:29;-2.30;99.90
5210;DHT22;2624;48.048;11.706;2023-02-28T02:53:36;-2.50;99.90
5210;DHT22;2624;48.048;11.706;2023-02-28T02:58:41;-2.50;99.90
5210;DHT22;2624;48.048;11.706;2023-02-28T03:03:45;-2.70;99.90
5210;DHT22;2624;48.048;11.706;2023-02-28T03:08:48;-2.60;99.90
5210;DHT22;2624;48.048;11.706;2023-02-28T03:19:36;-2.50;99.90
5210;DHT22;2624;48.048;11.706;2023-02-28T03:24:47;-2.50;99.90
5210;DHT22;2624;48.048;11.706;2023-02-28T03:29:58;-2.50;99.90
5210;DHT22;2624;48.048;11.706;2023-02-28T03:35:06;-2.50;99.90
5210;DHT22;2624;48.048;11.706;2023-02-28T03:40:14;-2.50;99.90
5210;DHT22;2624;48.048;11.706;2023-02-28T03:45:20;-2.50;99.90
5210;DHT22;2624;48.048;11.706;2023-02-28T03:50:25;-2.60;99.90
5210;DHT22;2624;48.048;11.706;2023-02-28T03:55:33;-2.80;99.90
5210;DHT22;2624;48.048;11.706;2023-02-28T04:00:38;-2.80;99.90
5210;DHT22;2624;48.048;11.706;2023-02-28T04:05:48;-2.80;99.90
5210;DHT22;2624;48.048;11.706;2023-02-28T04:10:56;-3.00;99.90
5210;DHT22;2624;48.048;11.706;2023-02-28T04:15:59;-3.10;99.90
5210;DHT22;2624;48.048;11.706;2023-02-28T04:21:00;-2.90;99.90
5210;DHT22;2624;48.048;11.706;2023-02-28T04:26:04;-3.00;99.90
5210;DHT22;2624;48.048;11.706;2023-02-28T04:31:06;-2.90;99.90
5210;DHT22;2624;48.048;11.706;2023-02-28T04:36:08;-2.70;99.90
5210;DHT22;2624;48.048;11.706;2023-02-28T04:41:12;-2.80;99.90
5210;DHT22;2624;48.048;11.706;2023-02-28T04:46:14;-2.70;99.90
5210;DHT22;2624;48.048;11.706;2023-02-28T04:51:17;-2.60;99.90
5210;DHT22;2624;48.048;11.706;2023-02-28T04:56:21;-2.70;99.90
5210;DHT22;2624;48.048;11.706;2023-02-28T05:01:24;-2.90;99.90
5210;DHT22;2624;48.048;11.706;2023-02-28T05:06:28;-3.00;99.90
5210;DHT22;2624;48.048;11.706;2023-02-28T05:11:33;-3.00;99.90
5210;DHT22;2624;48.048;11.706;2023-02-28T05:16:35;-3.00;99.90
5210;DHT22;2624;48.048;11.706;2023-02-28T05:21:39;-2.90;99.90
5210;DHT22;2624;48.048;11.706;2023-02-28T05:26:43;-2.80;99.90
5210;DHT22;2624;48.048;11.706;2023-02-28T05:31:45;-2.80;99.90
5210;DHT22;2624;48.048;11.706;2023-02-28T05:36:46;-2.90;99.90
5210;DHT22;2624;48.048;11.706;2023-02-28T05:41:49;-2.80;99.90
5210;DHT22;2624;48.048;11.706;2023-02-28T05:46:51;-2.90;99.90
5210;DHT22;2624;48.048;11.706;2023-02-28T05:51:53;-2.90;99.90
5210;DHT22;2624;48.048;11.706;2023-02-28T05:56:56;-3.20;99.90
5210;DHT22;2624;48.048;11.706;2023-02-28T06:01:57;-3.10;99.90
5210;DHT22;2624;48.048;11.706;2023-02-28T06:06:59;-2.90;99.90
5210;DHT22;2624;48.048;11.706;2023-02-28T06:12:05;-2.90;99.90
5210;DHT22;2624;48.048;11.706;2023-02-28T06:17:08;-3.20;99.90
5210;DHT22;2624;48.048;11.706;2023-02-28T06:22:10;-3.40;99.90
5210;DHT22;2624;48.048;11.706;2023-02-28T06:27:13;-3.40;99.90
5210;DHT22;2624;48.048;11.706;2023-02-28T06:32:15;-3.40;99.90
5210;DHT22;2624;48.048;11.706;2023-02-28T06:37:17;-3.20;99.90
5210;DHT22;2624;48.048;11.706;2023-02-28T06:42:20;-3.40;99.90
5210;DHT22;2624;48.048;11.706;2023-02-28T06:47:25;-3.30;99.90
5210;DHT22;2624;48.048;11.706;2023-02-28T06:52:26;-3.40;99.90
5210;DHT22;2624;48.048;11.706;2023-02-28T06:57:30;-3.40;99.90
5210;DHT22;2624;48.048;11.706;2023-02-28T07:02:32;-3.50;99.90
5210;DHT22;2624;48.048;11.706;2023-02-28T07:07:34;-3.30;99.90
5210;DHT22;2624;48.048;11.706;2023-02-28T07:12:39;-3.30;99.90
5210;DHT22;2624;48.048;11.706;2023-02-28T07:17:41;-3.10;99.90
5210;DHT22;2624;48.048;11.706;2023-02-28T07:22:43;-3.20;99.90
5210;DHT22;2624;48.048;11.706;2023-02-28T07:27:46;-3.10;99.90
5210;DHT22;2624;48.048;11.706;2023-02-28T07:32:48;-3.10;99.90
5210;DHT22;2624;48.048;11.706;2023-02-28T07:37:50;-3.00;99.90
5210;DHT22;2624;48.048;11.706;2023-02-28T07:42:53;-3.00;99.90
5210;DHT22;2624;48.048;11.706;2023-02-28T07:47:55;-3.20;99.90
5210;DHT22;2624;48.048;11.706;2023-02-28T07:52:57;-3.10;99.90
5210;DHT22;2624;48.048;11.706;2023-02-28T07:58:01;-3.10;99.90
5210;DHT22;2624;48.048;11.706;2023-02-28T08:03:02;-3.00;99.90
5210;DHT22;2624;48.048;11.706;2023-02-28T08:08:04;-2.90;99.90
5210;DHT22;2624;48.048;11.706;2023-02-28T08:13:07;-3.00;99.90
5210;DHT22;2624;48.048;11.706;2023-02-28T08:18:09;-3.00;99.90
5210;DHT22;2624;48.048;11.706;2023-02-28T08:23:11;-3.10;99.90
5210;DHT22;2624;48.048;11.706;2023-02-28T08:28:14;-2.90;99.90
5210;DHT22;2624;48.048;11.706;2023-02-28T08:33:16;-2.90;99.90
5210;DHT22;2624;48.048;11.706;2023-02-28T08:38:18;-3.00;99.90
5210;DHT22;2624;48.048;11.706;2023-02-28T08:43:21;-3.00;99.90
5210;DHT22;2624;48.048;11.706;2023-02-28T08:48:23;-2.90;99.90
5210;DHT22;2624;48.048;11.706;2023-02-28T08:53:25;-2.90;99.90
5210;DHT22;2624;48.048;11.706;2023-02-28T08:58:28;-2.90;99.90
5210;DHT22;2624;48.048;11.706;2023-02-28T09:03:30;-2.70;99.90
5210;DHT22;2624;48.048;11.706;2023-02-28T09:08:31;-2.80;99.90
5210;DHT22;2624;48.048;11.706;2023-02-28T09:13:35;-2.70;99.90
5210;DHT22;2624;48.048;11.706;2023-02-28T09:18:37;-2.80;99.90
5210;DHT22;2624;48.048;11.706;2023-02-28T09:23:39;-2.70;99.90
5210;DHT22;2624;48.048;11.706;2023-02-28T09:28:42;-2.80;99.90
5210;DHT22;2624;48.048;11.706;2023-02-28T09:33:44;-2.70;99.90
5210;DHT22;2624;48.048;11.706;2023-02-28T09:38:46;-2.70;99.90
5210;DHT22;2624;48.048;11.706;2023-02-28T09:43:51;-2.70;99.90
5210;DHT22;2624;48.048;11.706;2023-02-28T09:48:56;-2.60;99.90
5210;DHT22;2624;48.048;11.706;2023-02-28T09:53:58;-2.50;99.90
5210;DHT22;2624;48.048;11.706;2023-02-28T09:59:09;-2.50;99.90
5210;DHT22;2624;48.048;11.706;2023-02-28T10:04:19;-2.40;99.90
5210;DHT22;2624;48.048;11.706;2023-02-28T10:09:29;-2.30;99.90
5210;DHT22;2624;48.048;11.706;2023-02-28T10:14:34;-2.50;99.90
5210;DHT22;2624;48.048;11.706;2023-02-28T10:19:40;-2.50;99.90
5210;DHT22;2624;48.048;11.706;2023-02-28T10:24:45;-2.40;99.90
5210;DHT22;2624;48.048;11.706;2023-02-28T10:29:50;-2.30;99.90
5210;DHT22;2624;48.048;11.706;2023-02-28T10:34:53;-2.30;99.90
5210;DHT22;2624;48.048;11.706;2023-02-28T10:39:58;-2.10;99.90
5210;DHT22;2624;48.048;11.706;2023-02-28T10:45:11;-2.20;99.90
5210;DHT22;2624;48.048;11.706;2023-02-28T10:50:27;-2.20;99.90
5210;DHT22;2624;48.048;11.706;2023-02-28T10:55:29;-2.10;99.90
5210;DHT22;2624;48.048;11.706;2023-02-28T11:00:35;-2.00;99.90
5210;DHT22;2624;48.048;11.706;2023-02-28T11:05:37;-2.00;99.90
5210;DHT22;2624;48.048;11.706;2023-02-28T11:20:53;-1.70;99.90
5210;DHT22;2624;48.048;11.706;2023-02-28T11:25:58;-1.80;99.90
5210;DHT22;2624;48.048;11.706;2023-02-28T11:31:06;-1.40;99.90
5210;DHT22;2624;48.048;11.706;2023-02-28T11:36:12;-1.50;99.90
5210;DHT22;2624;48.048;11.706;2023-02-28T11:41:38;-1.20;99.90
5210;DHT22;2624;48.048;11.706;2023-02-28T11:46:50;-0.80;99.90
5210;DHT22;2624;48.048;11.706;2023-02-28T11:51:58;-0.60;99.90
5210;DHT22;2624;48.048;11.706;2023-02-28T11:57:25;-0.30;99.90
5210;DHT22;2624;48.048;11.706;2023-02-28T12:02:36;-0.30;99.90
5210;DHT22;2624;48.048;11.706;2023-02-28T12:07:52;-0.10;99.90
5210;DHT22;2624;48.048;11.706;2023-02-28T12:13:06;-0.10;99.90
5210;DHT22;2624;48.048;11.706;2023-02-28T12:18:31;0.10;99.90
5210;DHT22;2624;48.048;11.706;2023-02-28T12:24:00;0.10;99.90
5210;DHT22;2624;48.048;11.706;2023-02-28T12:29:10;0.30;99.90
5210;DHT22;2624;48.048;11.706;2023-02-28T12:34:19;0.30;99.90
5210;DHT22;2624;48.048;11.706;2023-02-28T12:39:26;0.60;99.90
5210;DHT22;2624;48.048;11.706;2023-02-28T12:44:32;0.70;99.90
5210;DHT22;2624;48.048;11.706;2023-02-28T12:49:39;0.80;99.90
5210;DHT22;2624;48.048;11.706;2023-02-28T12:54:48;0.90;99.90
5210;DHT22;2624;48.048;11.706;2023-02-28T12:59:53;1.00;99.90
5210;DHT22;2624;48.048;11.706;2023-02-28T13:05:10;1.00;99.90
5210;DHT22;2624;48.048;11.706;2023-02-28T13:10:13;1.20;99.90
5210;DHT22;2624;48.048;11.706;2023-02-28T13:15:21;1.10;99.90
5210;DHT22;2624;48.048;11.706;2023-02-28T13:20:27;1.20;99.90
5210;DHT22;2624;48.048;11.706;2023-02-28T13:25:50;1.20;99.90
5210;DHT22;2624;48.048;11.706;2023-02-28T13:31:05;1.30;99.90
5210;DHT22;2624;48.048;11.706;2023-02-28T13:36:11;1.30;99.90
5210;DHT22;2624;48.048;11.706;2023-02-28T13:41:43;1.40;99.90
5210;DHT22;2624;48.048;11.706;2023-02-28T13:47:20;1.40;99.90
5210;DHT22;2624;48.048;11.706;2023-02-28T13:52:24;1.30;99.90
5210;DHT22;2624;48.048;11.706;2023-02-28T13:57:39;1.40;99.90
5210;DHT22;2624;48.048;11.706;2023-02-28T14:02:55;1.30;99.90
5210;DHT22;2624;48.048;11.706;2023-02-28T14:08:07;1.30;99.90
5210;DHT22;2624;48.048;11.706;2023-02-28T14:13:40;1.30;99.90
5210;DHT22;2624;48.048;11.706;2023-02-28T14:18:50;1.30;99.90
5210;DHT22;2624;48.048;11.706;2023-02-28T14:24:21;1.40;99.90
5210;DHT22;2624;48.048;11.706;2023-02-28T14:35:20;1.30;99.90
5210;DHT22;2624;48.048;11.706;2023-02-28T14:40:27;1.40;99.90
5210;DHT22;2624;48.048;11.706;2023-02-28T14:45:34;1.40;99.90
5210;DHT22;2624;48.048;11.706;2023-02-28T14:50:38;1.40;99.90
5210;DHT22;2624;48.048;11.706;2023-02-28T14:55:44;1.40;99.90
5210;DHT22;2624;48.048;11.706;2023-02-28T15:00:50;1.30;99.90
5210;DHT22;2624;48.048;11.706;2023-02-28T15:05:54;1.30;99.90
5210;DHT22;2624;48.048;11.706;2023-02-28T15:10:58;1.30;99.90
5210;DHT22;2624;48.048;11.706;2023-02-28T15:16:04;1.30;99.90
5210;DHT22;2624;48.048;11.706;2023-02-28T15:21:10;1.30;99.90
5210;DHT22;2624;48.048;11.706;2023-02-28T15:26:16;1.30;99.90
5210;DHT22;2624;48.048;11.706;2023-02-28T15:31:23;1.30;99.90
5210;DHT22;2624;48.048;11.706;2023-02-28T15:36:28;1.30;99.90
5210;DHT22;2624;48.048;11.706;2023-02-28T15:41:35;1.30;99.90
5210;DHT22;2624;48.048;11.706;2023-02-28T15:46:40;1.20;99.90
5210;DHT22;2624;48.048;11.706;2023-02-28T15:51:43;1.20;99.90
5210;DHT22;2624;48.048;11.706;2023-02-28T15:56:46;1.10;99.90
5210;DHT22;2624;48.048;11.706;2023-02-28T16:02:12;1.10;99.90
5210;DHT22;2624;48.048;11.706;2023-02-28T16:07:17;1.10;99.90
5210;DHT22;2624;48.048;11.706;2023-02-28T16:12:20;1.00;99.90
5210;DHT22;2624;48.048;11.706;2023-02-28T16:17:25;1.00;99.90
5210;DHT22;2624;48.048;11.706;2023-02-28T16:22:28;0.90;99.90
5210;DHT22;2624;48.048;11.706;2023-02-28T16:27:32;0.80;99.90
5210;DHT22;2624;48.048;11.706;2023-02-28T16:32:37;0.80;99.90
5210;DHT22;2624;48.048;11.706;2023-02-28T16:37:39;0.70;99.90
5210;DHT22;2624;48.048;11.706;2023-02-28T16:42:42;0.70;99.90
5210;DHT22;2624;48.048;11.706;2023-02-28T16:47:46;0.60;99.90
5210;DHT22;2624;48.048;11.706;2023-02-28T16:52:49;0.60;99.90
5210;DHT22;2624;48.048;11.706;2023-02-28T16:57:55;0.60;99.90
5210;DHT22;2624;48.048;11.706;2023-02-28T17:02:58;0.50;99.90
5210;DHT22;2624;48.048;11.706;2023-02-28T17:08:00;0.50;99.90
5210;DHT22;2624;48.048;11.706;2023-02-28T17:13:02;0.30;99.90
5210;DHT22;2624;48.048;11.706;2023-02-28T17:18:05;0.20;99.90
5210;DHT22;2624;48.048;11.706;2023-02-28T17:23:09;0.20;99.90
5210;DHT22;2624;48.048;11.706;2023-02-28T17:28:10;0.20;99.90
5210;DHT22;2624;48.048;11.706;2023-02-28T17:33:14;0.30;99.90
5210;DHT22;2624;48.048;11.706;2023-02-28T17:38:17;0.20;99.90
5210;DHT22;2624;48.048;11.706;2023-02-28T17:43:19;0.30;99.90
5210;DHT22;2624;48.048;11.706;2023-02-28T17:48:22;0.40;99.90
5210;DHT22;2624;48.048;11.706;2023-02-28T17:53:24;0.50;99.90
5210;DHT22;2624;48.048;11.706;2023-02-28T17:58:27;0.40;99.90
5210;DHT22;2624;48.048;11.706;2023-02-28T18:03:32;0.30;99.90
5210;DHT22;2624;48.048;11.706;2023-02-28T18:08:34;0.40;99.90
5210;DHT22;2624;48.048;11.706;2023-02-28T18:13:36;0.30;99.90
5210;DHT22;2624;48.048;11.706;2023-02-28T18:18:40;0.10;99.90
5210;DHT22;2624;48.048;11.706;2023-02-28T18:23:43;0.00;99.90
5210;DHT22;2624;48.048;11.706;2023-02-28T18:28:48;0.10;99.90
5210;DHT22;2624;48.048;11.706;2023-02-28T18:33:52;0.00;99.90
5210;DHT22;2624;48.048;11.706;2023-02-28T18:38:53;0.10;99.90
5210;DHT22;2624;48.048;11.706;2023-02-28T18:43:55;0.20;99.90
5210;DHT22;2624;48.048;11.706;2023-02-28T18:48:59;0.10;99.90
5210;DHT22;2624;48.048;11.706;2023-02-28T18:54:01;0.00;99.90
5210;DHT22;2624;48.048;11.706;2023-02-28T18:59:03;0.00;99.90
5210;DHT22;2624;48.048;11.706;2023-02-28T19:04:11;0.10;99.90
5210;DHT22;2624;48.048;11.706;2023-02-28T19:09:13;0.20;99.90
5210;DHT22;2624;48.048;11.706;2023-02-28T19:14:15;0.00;99.90
5210;DHT22;2624;48.048;11.706;2023-02-28T19:19:18;0.00;99.90
5210;DHT22;2624;48.048;11.706;2023-02-28T19:24:20;0.10;99.90
5210;DHT22;2624;48.048;11.706;2023-02-28T19:29:22;0.00;99.90
5210;DHT22;2624;48.048;11.706;2023-02-28T19:34:25;0.00;99.90
5210;DHT22;2624;48.048;11.706;2023-02-28T19:39:27;0.00;99.90
5210;DHT22;2624;48.048;11.706;2023-02-28T19:44:28;0.10;99.90
5210;DHT22;2624;48.048;11.706;2023-02-28T19:49:32;0.10;99.90
5210;DHT22;2624;48.048;11.706;2023-02-28T19:54:33;0.00;99.90
5210;DHT22;2624;48.048;11.706;2023-02-28T19:59:35;-0.10;99.90
5210;DHT22;2624;48.048;11.706;2023-02-28T20:04:38;0.10;99.90
5210;DHT22;2624;48.048;11.706;2023-02-28T20:09:40;0.20;99.90
5210;DHT22;2624;48.048;11.706;2023-02-28T20:14:42;0.10;99.90
5210;DHT22;2624;48.048;11.706;2023-02-28T20:19:45;0.10;99.90
5210;DHT22;2624;48.048;11.706;2023-02-28T20:24:47;0.00;99.90
5210;DHT22;2624;48.048;11.706;2023-02-28T20:29:48;0.00;99.90
5210;DHT22;2624;48.048;11.706;2023-02-28T20:34:52;0.10;99.90
5210;DHT22;2624;48.048;11.706;2023-02-28T20:39:53;0.10;99.90
5210;DHT22;2624;48.048;11.706;2023-02-28T20:44:55;0.10;99.90
5210;DHT22;2624;48.048;11.706;2023-02-28T20:49:58;0.10;99.90
5210;DHT22;2624;48.048;11.706;2023-02-28T20:55:00;0.10;99.90
5210;DHT22;2624;48.048;11.706;2023-02-28T21:00:02;0.00;99.90
5210;DHT22;2624;48.048;11.706;2023-02-28T21:05:06;0.10;99.90
5210;DHT22;2624;48.048;11.706;2023-02-28T21:10:09;0.10;99.90
5210;DHT22;2624;48.048;11.706;2023-02-28T21:15:11;0.10;99.90
5210;DHT22;2624;48.048;11.706;2023-02-28T21:20:15;0.00;99.90
5210;DHT22;2624;48.048;11.706;2023-02-28T21:25:21;0.00;99.90
5210;DHT22;2624;48.048;11.706;2023-02-28T21:30:23;0.00;99.90
5210;DHT22;2624;48.048;11.706;2023-02-28T21:35:26;0.00;99.90
5210;DHT22;2624;48.048;11.706;2023-02-28T21:40:27;0.10;99.90
5210;DHT22;2624;48.048;11.706;2023-02-28T21:45:29;0.10;99.90
5210;DHT22;2624;48.048;11.706;2023-02-28T21:50:33;0.10;99.90
5210;DHT22;2624;48.048;11.706;2023-02-28T21:55:34;0.10;99.90
5210;DHT22;2624;48.048;11.706;2023-02-28T22:00:36;0.00;99.90
5210;DHT22;2624;48.048;11.706;2023-02-28T22:05:39;0.00;99.90
5210;DHT22;2624;48.048;11.706;2023-02-28T22:10:41;0.00;99.90
5210;DHT22;2624;48.048;11.706;2023-02-28T22:15:42;0.00;99.90
5210;DHT22;2624;48.048;11.706;2023-02-28T22:20:53;0.00;99.90
5210;DHT22;2624;48.048;11.706;2023-02-28T22:25:55;0.00;99.90
5210;DHT22;2624;48.048;11.706;2023-02-28T22:30:57;0.00;99.90
5210;DHT22;2624;48.048;11.706;2023-02-28T22:36:06;0.00;99.90
5210;DHT22;2624;48.048;11.706;2023-02-28T22:41:08;0.00;99.90
5210;DHT22;2624;48.048;11.706;2023-02-28T22:46:12;0.00;99.90
5210;DHT22;2624;48.048;11.706;2023-02-28T22:51:16;-0.10;99.90
5210;DHT22;2624;48.048;11.706;2023-02-28T22:56:20;0.00;99.90
5210;DHT22;2624;48.048;11.706;2023-02-28T23:01:24;0.00;99.90
5210;DHT22;2624;48.048;11.706;2023-02-28T23:06:29;-0.10;99.90
5210;DHT22;2624;48.048;11.706;2023-02-28T23:11:33;0.00;99.90
5210;DHT22;2624;48.048;11.706;2023-02-28T23:16:38;-0.10;99.90
5210;DHT22;2624;48.048;11.706;2023-02-28T23:21:42;0.00;99.90
5210;DHT22;2624;48.048;11.706;2023-02-28T23:26:45;0.00;99.90
5210;DHT22;2624;48.048;11.706;2023-02-28T23:31:47;0.00;99.90
5210;DHT22;2624;48.048;11.706;2023-02-28T23:36:51;-0.10;99.90
5210;DHT22;2624;48.048;11.706;2023-02-28T23:41:53;-0.10;99.90
5210;DHT22;2624;48.048;11.706;2023-02-28T23:46:55;-0.10;99.90
5210;DHT22;2624;48.048;11.706;2023-02-28T23:51:58;-0.10;99.90
5210;DHT22;2624;48.048;11.706;2023-02-28T23:57:00;-0.10;99.90
